createdAt,value
2024-01-20T00:02:11.119Z,3.81
2024-01-20T00:04:40.881Z,3.78
2024-01-20T00:06:50.966Z,3.76
2024-01-20T00:09:00.829Z,3.72
2024-01-20T00:11:24.045Z,3.71
2024-01-20T00:13:37.501Z,3.71
2024-01-20T00:15:47.193Z,3.70
2024-01-20T00:18:07.250Z,3.68
2024-01-20T00:20:20.174Z,3.67
2024-01-20T00:22:40.001Z,3.65
2024-01-20T00:24:54.498Z,3.63
2024-01-20T00:27:04.359Z,3.61
2024-01-20T00:29:14.194Z,3.59
2024-01-20T00:31:30.770Z,3.56
2024-01-20T00:34:00.647Z,3.55
2024-01-20T00:36:10.969Z,3.53
2024-01-20T00:38:30.533Z,3.51
2024-01-20T00:40:45.728Z,3.50
2024-01-20T00:43:05.506Z,3.49
2024-01-20T00:45:15.398Z,3.48
2024-01-20T00:47:28.715Z,3.47
2024-01-20T00:49:58.306Z,3.46
2024-01-20T00:52:09.268Z,3.44
2024-01-20T00:54:38.720Z,3.43
2024-01-20T00:56:59.358Z,3.42
2024-01-20T00:59:19.015Z,3.40
2024-01-20T01:01:42.677Z,3.37
2024-01-20T01:04:02.097Z,3.38
2024-01-20T01:06:14.906Z,3.38
2024-01-20T01:08:27.578Z,3.37
2024-01-20T01:10:37.314Z,3.38
2024-01-20T01:12:47.290Z,3.38
2024-01-20T01:15:17.248Z,3.37
2024-01-20T01:17:27.035Z,3.36
2024-01-20T01:19:40.254Z,3.32
2024-01-20T01:21:49.837Z,3.32
2024-01-20T01:23:59.277Z,3.31
2024-01-20T01:26:09.284Z,3.29
2024-01-20T01:28:19.051Z,3.26
2024-01-20T01:30:50.463Z,3.26
2024-01-20T01:33:20.008Z,3.24
2024-01-20T01:35:32.643Z,3.22
2024-01-20T01:37:45.936Z,3.22
2024-01-20T01:40:11.765Z,3.21
2024-01-20T01:42:21.206Z,3.19
2024-01-20T01:44:40.949Z,3.18
2024-01-20T01:46:54.333Z,3.18
2024-01-20T01:49:07.988Z,3.18
2024-01-20T01:51:37.630Z,3.17
2024-01-20T01:53:51.855Z,3.17
2024-01-20T01:56:02.408Z,3.17
2024-01-20T01:58:12.131Z,3.17
2024-01-20T02:00:33.455Z,3.17
2024-01-20T02:02:43.081Z,3.20
2024-01-20T02:05:02.800Z,3.20
2024-01-20T02:07:23.160Z,3.21
2024-01-20T02:09:34.948Z,3.21
2024-01-20T02:11:44.838Z,3.20
2024-01-20T02:13:55.929Z,3.19
2024-01-20T02:16:25.590Z,3.18
2024-01-20T02:18:55.269Z,3.17
2024-01-20T02:21:16.229Z,3.17
2024-01-20T02:23:25.944Z,3.16
2024-01-20T02:25:38.651Z,3.15
2024-01-20T02:27:59.205Z,3.14
2024-01-20T02:30:14.221Z,3.12
2024-01-20T02:32:43.748Z,3.12
2024-01-20T02:34:56.259Z,3.11
2024-01-20T02:37:06.517Z,3.11
2024-01-20T02:39:16.363Z,3.09
2024-01-20T02:41:46.309Z,3.10
2024-01-20T02:43:58.799Z,3.09
2024-01-20T02:46:11.561Z,3.11
2024-01-20T02:48:21.521Z,3.11
2024-01-20T02:50:51.578Z,3.12
2024-01-20T02:53:01.681Z,3.14
2024-01-20T02:55:21.298Z,3.15
2024-01-20T02:57:51.007Z,3.14
2024-01-20T03:00:12.054Z,3.13
2024-01-20T03:02:21.808Z,3.14
2024-01-20T03:04:31.552Z,3.16
2024-01-20T03:06:41.541Z,3.16
2024-01-20T03:08:51.032Z,3.17
2024-01-20T03:11:00.610Z,3.16
2024-01-20T03:13:10.507Z,3.16
2024-01-20T03:15:30.357Z,3.16
2024-01-20T03:17:43.082Z,3.16
2024-01-20T03:19:52.830Z,3.15
2024-01-20T03:22:02.884Z,3.15
2024-01-20T03:24:14.812Z,3.13
2024-01-20T03:26:25.052Z,3.12
2024-01-20T03:28:34.560Z,3.11
2024-01-20T03:30:47.275Z,3.10
2024-01-20T03:33:01.658Z,3.10
2024-01-20T03:35:24.313Z,3.10
2024-01-20T03:37:33.887Z,3.09
2024-01-20T03:39:53.599Z,3.09
2024-01-20T03:42:03.576Z,3.08
2024-01-20T03:44:33.647Z,3.08
2024-01-20T03:46:54.292Z,3.09
2024-01-20T03:49:23.934Z,3.10
2024-01-20T03:51:44.546Z,3.12
2024-01-20T03:53:54.534Z,3.13
2024-01-20T03:56:18.270Z,3.14
2024-01-20T03:58:30.902Z,3.14
2024-01-20T04:00:40.820Z,3.14
2024-01-20T04:02:51.238Z,3.14
2024-01-20T04:05:04.452Z,3.14
2024-01-20T04:07:24.146Z,3.13
2024-01-20T04:09:39.385Z,3.11
2024-01-20T04:11:49.351Z,3.12
2024-01-20T04:14:19.027Z,3.11
2024-01-20T04:16:48.742Z,3.11
2024-01-20T04:19:08.601Z,3.10
2024-01-20T04:21:28.660Z,3.10
2024-01-20T04:23:43.326Z,3.11
2024-01-20T04:25:53.838Z,3.12
2024-01-20T04:28:13.658Z,3.11
2024-01-20T04:30:36.340Z,3.11
2024-01-20T04:33:07.249Z,3.09
2024-01-20T04:35:37.001Z,3.10
2024-01-20T04:37:46.848Z,3.10
2024-01-20T04:39:57.723Z,3.11
2024-01-20T04:42:27.512Z,3.11
2024-01-20T04:44:47.182Z,3.11
2024-01-20T04:46:56.668Z,3.10
2024-01-20T04:49:09.841Z,3.11
2024-01-20T04:51:20.766Z,3.11
2024-01-20T04:53:51.569Z,3.12
2024-01-20T04:56:11.140Z,3.11
2024-01-20T04:58:20.933Z,3.12
2024-01-20T05:00:34.006Z,3.14
2024-01-20T05:02:43.848Z,3.12
2024-01-20T05:04:57.000Z,3.11
2024-01-20T05:07:19.689Z,3.12
2024-01-20T05:09:33.036Z,3.12
2024-01-20T05:11:42.728Z,3.12
2024-01-20T05:13:52.279Z,3.12
2024-01-20T05:16:13.338Z,3.13
2024-01-20T05:18:23.362Z,3.13
2024-01-20T05:20:53.370Z,3.13
2024-01-20T05:23:08.970Z,3.13
2024-01-20T05:25:21.565Z,3.13
2024-01-20T05:27:51.554Z,3.12
2024-01-20T05:30:05.883Z,3.11
2024-01-20T05:32:17.452Z,3.11
2024-01-20T05:34:27.322Z,3.10
2024-01-20T05:36:41.204Z,3.08
2024-01-20T05:38:54.325Z,3.07
2024-01-20T05:41:15.178Z,3.05
2024-01-20T05:43:25.328Z,3.05
2024-01-20T05:45:35.475Z,3.04
2024-01-20T05:47:56.619Z,3.02
2024-01-20T05:50:11.151Z,2.98
2024-01-20T05:52:20.595Z,2.98
2024-01-20T05:54:30.459Z,2.98
2024-01-20T05:57:00.494Z,2.94
2024-01-20T05:59:13.909Z,2.92
2024-01-20T06:01:34.551Z,2.90
2024-01-20T06:03:44.288Z,2.88
2024-01-20T06:06:04.989Z,2.86
2024-01-20T06:08:34.768Z,2.84
2024-01-20T06:10:47.491Z,2.82
2024-01-20T06:12:57.062Z,2.81
2024-01-20T06:15:16.427Z,2.80
2024-01-20T06:17:25.984Z,2.80
2024-01-20T06:19:35.547Z,2.80
2024-01-20T06:21:54.462Z,2.81
2024-01-20T06:24:04.463Z,2.82
2024-01-20T06:26:34.131Z,2.82
2024-01-20T06:29:03.935Z,2.80
2024-01-20T06:31:34.097Z,2.80
2024-01-20T06:33:57.982Z,2.82
2024-01-20T06:36:28.016Z,2.83
2024-01-20T06:38:41.720Z,2.83
2024-01-20T06:40:51.407Z,2.81
2024-01-20T06:43:01.123Z,2.79
2024-01-20T06:45:15.135Z,2.77
2024-01-20T06:47:25.209Z,2.75
2024-01-20T06:49:40.889Z,2.74
2024-01-20T06:51:53.300Z,2.69
2024-01-20T06:54:23.153Z,2.68
2024-01-20T06:56:52.836Z,2.64
2024-01-20T06:59:08.216Z,2.63
2024-01-20T07:01:21.562Z,2.62
2024-01-20T07:03:42.516Z,2.59
2024-01-20T07:06:06.128Z,2.61
2024-01-20T07:08:35.882Z,2.63
2024-01-20T07:11:09.870Z,2.65
2024-01-20T07:13:39.807Z,2.65
2024-01-20T07:16:13.714Z,2.64
2024-01-20T07:18:23.444Z,2.62
2024-01-20T07:20:36.192Z,2.62
2024-01-20T07:22:57.076Z,2.62
2024-01-20T07:25:25.922Z,2.64
2024-01-20T07:27:45.339Z,2.64
2024-01-20T07:29:55.010Z,2.64
2024-01-20T07:32:05.742Z,2.63
2024-01-20T07:34:15.879Z,2.62
2024-01-20T07:36:45.697Z,2.56
2024-01-20T07:39:07.184Z,2.57
2024-01-20T07:41:16.849Z,2.57
2024-01-20T07:43:29.653Z,2.58
2024-01-20T07:45:40.993Z,2.58
2024-01-20T07:48:11.188Z,2.58
2024-01-20T07:50:40.426Z,2.58
2024-01-20T07:52:53.677Z,2.57
2024-01-20T07:55:03.513Z,2.57
2024-01-20T07:57:24.036Z,2.57
2024-01-20T07:59:54.350Z,2.57
2024-01-20T08:02:05.086Z,2.57
2024-01-20T08:04:27.087Z,2.57
2024-01-20T08:06:42.033Z,2.56
2024-01-20T08:08:50.030Z,2.54
2024-01-20T08:11:03.115Z,2.52
2024-01-20T08:13:12.654Z,2.53
2024-01-20T08:15:25.844Z,2.53
2024-01-20T08:17:55.839Z,2.50
2024-01-20T08:20:25.764Z,2.49
2024-01-20T08:22:45.464Z,2.45
2024-01-20T08:25:06.699Z,2.44
2024-01-20T08:27:16.495Z,2.42
2024-01-20T08:29:46.169Z,2.41
2024-01-20T08:31:55.923Z,2.42
2024-01-20T08:34:05.928Z,2.43
2024-01-20T08:36:18.945Z,2.45
2024-01-20T08:38:28.609Z,2.47
2024-01-20T08:40:41.261Z,2.49
2024-01-20T08:42:51.648Z,2.51
2024-01-20T08:45:21.198Z,2.55
2024-01-20T08:47:40.130Z,2.57
2024-01-20T08:50:10.803Z,2.58
2024-01-20T08:52:20.792Z,2.61
2024-01-20T08:54:50.323Z,2.63
2024-01-20T08:57:02.582Z,2.66
2024-01-20T08:59:32.194Z,2.68
2024-01-20T09:01:44.845Z,2.70
2024-01-20T09:03:54.691Z,2.72
2024-01-20T09:06:17.750Z,2.75
2024-01-20T09:08:36.618Z,2.76
2024-01-20T09:10:46.362Z,2.78
2024-01-20T09:13:15.985Z,2.81
2024-01-20T09:15:29.160Z,2.83
2024-01-20T09:17:39.017Z,2.86
2024-01-20T09:20:10.640Z,2.87
2024-01-20T09:22:23.439Z,2.88
2024-01-20T09:24:33.009Z,2.89
2024-01-20T09:26:42.652Z,2.90
2024-01-20T09:28:52.286Z,2.90
2024-01-20T09:31:22.391Z,2.89
2024-01-20T09:33:32.224Z,2.90
2024-01-20T09:36:04.479Z,2.90
2024-01-20T09:38:34.179Z,2.88
2024-01-20T09:40:54.516Z,2.86
2024-01-20T09:43:08.067Z,2.84
2024-01-20T09:45:23.573Z,2.82
2024-01-20T09:47:37.063Z,2.81
2024-01-20T09:49:46.772Z,2.80
2024-01-20T09:52:21.372Z,2.79
2024-01-20T09:54:49.258Z,2.76
2024-01-20T09:57:20.988Z,2.75
2024-01-20T09:59:43.831Z,2.72
2024-01-20T10:01:55.394Z,2.70
2024-01-20T10:04:27.151Z,2.69
2024-01-20T10:06:47.725Z,2.69
2024-01-20T10:09:17.378Z,2.70
2024-01-20T10:11:28.525Z,2.71
2024-01-20T10:13:50.204Z,2.65
2024-01-20T10:16:02.853Z,2.72
2024-01-20T10:18:32.900Z,2.74
2024-01-20T10:21:09.234Z,2.69
2024-01-20T10:23:41.485Z,2.78
2024-01-20T10:26:06.301Z,2.78
2024-01-20T10:28:36.339Z,2.77
2024-01-20T10:30:58.779Z,2.80
2024-01-20T10:33:18.380Z,2.81
2024-01-20T10:35:34.674Z,2.81
2024-01-20T10:37:46.207Z,2.81
2024-01-20T10:40:02.415Z,2.81
2024-01-20T10:42:17.269Z,2.83
2024-01-20T10:44:40.806Z,2.81
2024-01-20T10:46:55.191Z,2.85
2024-01-20T10:49:27.370Z,2.86
2024-01-20T10:51:39.906Z,2.86
2024-01-20T10:54:02.931Z,2.86
2024-01-20T10:56:16.834Z,2.86
2024-01-20T10:58:53.666Z,2.85
2024-01-20T11:01:03.325Z,2.85
2024-01-20T11:03:13.630Z,2.82
2024-01-20T11:05:26.053Z,2.79
2024-01-20T11:07:40.888Z,2.80
2024-01-20T11:10:00.430Z,2.78
2024-01-20T11:12:26.596Z,2.76
2024-01-20T11:14:54.739Z,2.73
2024-01-20T11:17:16.482Z,2.69
2024-01-20T11:19:34.592Z,2.67
2024-01-20T11:21:55.555Z,2.66
2024-01-20T11:24:06.076Z,2.66
2024-01-20T11:26:36.164Z,2.64
2024-01-20T11:28:48.732Z,2.61
2024-01-20T11:31:02.057Z,2.59
2024-01-20T11:33:26.348Z,2.57
2024-01-20T11:35:46.143Z,2.59
2024-01-20T11:38:07.590Z,2.59
2024-01-20T11:40:27.029Z,2.64
2024-01-20T11:42:46.650Z,2.67
2024-01-20T11:45:16.801Z,2.76
2024-01-20T11:47:55.122Z,2.79
2024-01-20T11:50:04.951Z,2.88
2024-01-20T11:52:24.514Z,2.95
2024-01-20T11:54:36.242Z,2.98
2024-01-20T11:56:45.869Z,3.02
2024-01-20T11:59:06.254Z,3.04
2024-01-20T12:01:19.339Z,3.06
2024-01-20T12:03:49.258Z,3.06
2024-01-20T12:06:11.947Z,3.04
2024-01-20T12:08:46.721Z,3.01
2024-01-20T12:11:23.443Z,2.98
2024-01-20T12:13:34.419Z,2.93
2024-01-20T12:15:51.534Z,2.88
2024-01-20T12:18:04.676Z,2.83
2024-01-20T12:20:34.535Z,2.81
2024-01-20T12:22:57.863Z,2.81
2024-01-20T12:25:28.109Z,2.80
2024-01-20T12:27:43.934Z,2.79
2024-01-20T12:30:12.233Z,2.77
2024-01-20T12:32:25.269Z,2.71
2024-01-20T12:34:47.743Z,2.65
2024-01-20T12:36:57.566Z,2.59
2024-01-20T12:39:28.033Z,2.54
2024-01-20T12:41:57.871Z,2.51
2024-01-20T12:44:27.363Z,2.50
2024-01-20T12:46:37.331Z,2.47
2024-01-20T12:48:57.910Z,2.47
2024-01-20T12:51:07.870Z,2.48
2024-01-20T12:53:20.819Z,2.49
2024-01-20T12:55:39.552Z,2.50
2024-01-20T12:58:02.419Z,2.51
2024-01-20T13:00:14.155Z,2.53
2024-01-20T13:02:44.092Z,2.58
2024-01-20T13:05:13.949Z,2.61
2024-01-20T13:07:27.110Z,2.61
2024-01-20T13:09:46.914Z,2.61
2024-01-20T13:12:06.739Z,2.60
2024-01-20T13:14:36.645Z,2.60
2024-01-20T13:16:49.301Z,2.60
2024-01-20T13:18:59.527Z,2.60
2024-01-20T13:21:09.302Z,2.57
2024-01-20T13:23:29.151Z,2.55
2024-01-20T13:25:51.654Z,2.55
2024-01-20T13:28:15.096Z,2.57
2024-01-20T13:30:33.810Z,2.57
2024-01-20T13:32:43.749Z,2.57
2024-01-20T13:34:53.220Z,2.55
2024-01-20T13:37:12.188Z,2.56
2024-01-20T13:39:24.844Z,2.56
2024-01-20T13:41:54.536Z,2.60
2024-01-20T13:44:24.029Z,2.60
2024-01-20T13:46:37.371Z,2.59
2024-01-20T13:49:04.146Z,2.62
2024-01-20T13:51:27.197Z,2.63
2024-01-20T13:53:48.977Z,2.63
2024-01-20T13:56:18.642Z,2.63
2024-01-20T13:58:39.248Z,2.65
2024-01-20T14:01:09.907Z,2.65
2024-01-20T14:03:39.943Z,2.64
2024-01-20T14:05:59.849Z,2.60
2024-01-20T14:08:10.169Z,2.58
2024-01-20T14:10:20.053Z,2.56
2024-01-20T14:12:39.700Z,2.53
2024-01-20T14:14:49.830Z,2.53
2024-01-20T14:17:04.091Z,2.56
2024-01-20T14:19:33.951Z,2.57
2024-01-20T14:22:04.175Z,2.59
2024-01-20T14:24:19.872Z,2.64
2024-01-20T14:26:43.404Z,2.69
2024-01-20T14:29:03.270Z,2.73
2024-01-20T14:31:16.640Z,2.78
2024-01-20T14:33:29.539Z,2.80
2024-01-20T14:35:42.330Z,2.84
2024-01-20T14:37:52.372Z,2.87
2024-01-20T14:40:10.433Z,2.90
2024-01-20T14:42:40.418Z,2.90
2024-01-20T14:45:04.650Z,2.91
2024-01-20T14:47:25.491Z,2.93
2024-01-20T14:49:45.986Z,2.96
2024-01-20T14:52:15.536Z,3.00
2024-01-20T14:54:30.781Z,3.04
2024-01-20T14:56:41.661Z,3.09
2024-01-20T14:59:11.186Z,3.14
2024-01-20T15:01:21.132Z,3.17
2024-01-20T15:03:42.118Z,3.18
2024-01-20T15:05:55.408Z,3.17
2024-01-20T15:08:05.091Z,3.16
2024-01-20T15:10:15.362Z,3.19
2024-01-20T15:12:28.226Z,3.19
2024-01-20T15:14:57.580Z,3.20
2024-01-20T15:17:20.070Z,3.20
2024-01-20T15:19:29.598Z,3.20
2024-01-20T15:21:43.103Z,3.21
2024-01-20T15:24:12.967Z,3.21
2024-01-20T15:26:42.375Z,3.22
2024-01-20T15:28:52.090Z,3.24
2024-01-20T15:31:01.887Z,3.27
2024-01-20T15:33:21.626Z,3.27
2024-01-20T15:35:34.865Z,3.25
2024-01-20T15:37:47.668Z,3.25
2024-01-20T15:40:12.742Z,3.23
2024-01-20T15:42:42.412Z,3.19
2024-01-20T15:45:13.109Z,3.15
2024-01-20T15:47:26.247Z,3.12
2024-01-20T15:49:55.863Z,3.13
2024-01-20T15:52:27.461Z,3.13
2024-01-20T15:54:36.984Z,3.12
2024-01-20T15:56:47.038Z,3.11
2024-01-20T15:59:06.862Z,3.12
2024-01-20T16:01:25.704Z,3.13
2024-01-20T16:03:55.635Z,3.13
2024-01-20T16:06:10.053Z,3.14
2024-01-20T16:08:39.907Z,3.15
2024-01-20T16:11:10.060Z,3.16
2024-01-20T16:13:19.628Z,3.19
2024-01-20T16:15:43.904Z,3.19
2024-01-20T16:18:14.171Z,3.22
2024-01-20T16:20:28.928Z,3.23
2024-01-20T16:22:49.577Z,3.25
2024-01-20T16:25:10.353Z,3.27
2024-01-20T16:27:40.017Z,3.32
2024-01-20T16:29:49.606Z,3.37
2024-01-20T16:32:04.824Z,3.43
2024-01-20T16:34:17.953Z,3.49
2024-01-20T16:36:28.115Z,3.57
2024-01-20T16:38:41.704Z,3.72
2024-01-20T16:40:53.844Z,3.93
2024-01-20T16:43:13.886Z,4.08
2024-01-20T16:45:44.084Z,4.14
2024-01-20T16:48:09.117Z,4.24
2024-01-20T16:50:19.327Z,4.35
2024-01-20T16:52:41.641Z,4.43
2024-01-20T16:54:54.714Z,4.52
2024-01-20T16:57:10.159Z,4.65
2024-01-20T16:59:30.936Z,4.80
2024-01-20T17:01:49.576Z,4.96
2024-01-20T17:04:02.639Z,5.17
2024-01-20T17:06:22.522Z,5.35
2024-01-20T17:08:52.997Z,5.56
2024-01-20T17:11:06.509Z,5.64
2024-01-20T17:13:27.156Z,5.71
2024-01-20T17:15:40.030Z,5.79
2024-01-20T17:18:10.219Z,5.88
2024-01-20T17:20:20.746Z,5.90
2024-01-20T17:22:33.508Z,5.90
2024-01-20T17:24:43.433Z,5.87
2024-01-20T17:27:04.646Z,5.79
2024-01-20T17:29:17.447Z,5.74
2024-01-20T17:31:28.858Z,5.71
2024-01-20T17:33:49.415Z,5.70
2024-01-20T17:36:03.001Z,5.71
2024-01-20T17:38:12.888Z,5.72
2024-01-20T17:40:25.813Z,5.76
2024-01-20T17:42:38.178Z,5.82
2024-01-20T17:44:52.413Z,5.91
2024-01-20T17:47:05.517Z,6.03
2024-01-20T17:49:15.311Z,6.17
2024-01-20T17:51:45.911Z,6.39
2024-01-20T17:53:59.676Z,6.63
2024-01-20T17:56:10.515Z,6.84
2024-01-20T17:58:40.290Z,7.03
2024-01-20T18:00:53.099Z,7.21
2024-01-20T18:03:02.725Z,7.44
2024-01-20T18:05:12.716Z,7.72
2024-01-20T18:07:22.708Z,8.00
2024-01-20T18:09:36.012Z,8.21
2024-01-20T18:11:47.296Z,8.40
2024-01-20T18:13:56.989Z,8.65
2024-01-20T18:16:07.324Z,8.85
2024-01-20T18:18:17.103Z,8.99
2024-01-20T18:20:36.742Z,9.24
2024-01-20T18:22:56.225Z,9.46
2024-01-20T18:25:11.659Z,9.62
2024-01-20T18:27:24.363Z,9.75
2024-01-20T18:29:54.928Z,9.84
2024-01-20T18:32:10.649Z,10.02
2024-01-20T18:34:20.449Z,10.14
2024-01-20T18:36:51.410Z,10.25
2024-01-20T18:39:01.337Z,10.34
2024-01-20T18:41:11.445Z,10.47
2024-01-20T18:43:31.797Z,10.57
2024-01-20T18:46:01.364Z,10.76
2024-01-20T18:48:12.435Z,10.97
2024-01-20T18:50:36.219Z,11.17
2024-01-20T18:53:06.120Z,11.35
2024-01-20T18:55:19.282Z,11.48
2024-01-20T18:57:31.828Z,11.14
2024-01-20T19:00:03.069Z,10.66
2024-01-20T19:02:27.470Z,10.30
2024-01-20T19:04:39.081Z,10.02
2024-01-20T19:07:09.214Z,9.72
2024-01-20T19:09:22.270Z,9.36
2024-01-20T19:11:31.945Z,9.09
2024-01-20T19:13:42.217Z,8.81
2024-01-20T19:15:52.624Z,8.58
2024-01-20T19:18:22.647Z,8.33
2024-01-20T19:20:47.592Z,8.08
2024-01-20T19:23:17.641Z,7.89
2024-01-20T19:25:38.317Z,7.75
2024-01-20T19:27:48.446Z,7.61
2024-01-20T19:30:21.694Z,7.50
2024-01-20T19:32:45.027Z,7.33
2024-01-20T19:34:54.868Z,7.23
2024-01-20T19:37:14.677Z,7.18
2024-01-20T19:39:35.611Z,7.19
2024-01-20T19:41:48.038Z,7.34
2024-01-20T19:44:17.752Z,7.71
2024-01-20T19:46:30.696Z,7.92
2024-01-20T19:48:44.843Z,7.92
2024-01-20T19:50:57.981Z,7.87
2024-01-20T19:53:11.335Z,7.78
2024-01-20T19:55:31.526Z,7.58
2024-01-20T19:58:01.330Z,7.29
2024-01-20T20:00:25.057Z,7.14
2024-01-20T20:02:37.699Z,7.05
2024-01-20T20:04:50.893Z,6.98
2024-01-20T20:07:20.412Z,6.95
2024-01-20T20:09:50.161Z,6.92
2024-01-20T20:12:11.982Z,6.86
2024-01-20T20:14:24.789Z,6.83
2024-01-20T20:16:54.605Z,6.69
2024-01-20T20:19:08.490Z,6.59
2024-01-20T20:21:21.069Z,6.58
2024-01-20T20:23:42.038Z,6.58
2024-01-20T20:25:51.873Z,6.55
2024-01-20T20:28:11.137Z,6.57
2024-01-20T20:30:28.561Z,6.60
2024-01-20T20:33:00.164Z,6.59
2024-01-20T20:35:13.348Z,6.58
2024-01-20T20:37:26.329Z,6.59
2024-01-20T20:39:42.098Z,6.62
2024-01-20T20:41:54.933Z,6.63
2024-01-20T20:44:08.062Z,6.64
2024-01-20T20:46:37.762Z,6.65
2024-01-20T20:49:09.661Z,6.63
2024-01-20T20:51:17.797Z,6.60
2024-01-20T20:53:47.549Z,6.54
2024-01-20T20:56:00.987Z,6.45
2024-01-20T20:58:23.333Z,6.35
2024-01-20T21:00:53.627Z,6.27
2024-01-20T21:03:04.971Z,6.19
2024-01-20T21:05:18.421Z,6.13
2024-01-20T21:07:39.576Z,6.07
2024-01-20T21:10:02.610Z,5.98
2024-01-20T21:12:39.410Z,5.96
2024-01-20T21:14:49.611Z,5.93
2024-01-20T21:17:19.410Z,5.93
2024-01-20T21:19:32.572Z,5.94
2024-01-20T21:21:46.062Z,5.94
2024-01-20T21:23:55.959Z,5.90
2024-01-20T21:26:05.879Z,5.85
2024-01-20T21:28:26.637Z,5.78
2024-01-20T21:30:56.611Z,5.76
2024-01-20T21:33:16.788Z,5.72
2024-01-20T21:35:46.711Z,5.65
2024-01-20T21:38:08.525Z,5.57
2024-01-20T21:40:21.987Z,5.53
2024-01-20T21:42:41.839Z,5.46
2024-01-20T21:45:02.003Z,5.45
2024-01-20T21:47:24.357Z,5.40
2024-01-20T21:49:53.881Z,5.34
2024-01-20T21:52:03.322Z,5.28
2024-01-20T21:54:15.171Z,5.24
2024-01-20T21:56:28.184Z,5.15
2024-01-20T21:58:41.330Z,5.03
2024-01-20T22:00:51.909Z,4.98
2024-01-20T22:03:06.169Z,4.95
2024-01-20T22:05:35.849Z,4.95
2024-01-20T22:08:05.975Z,4.96
2024-01-20T22:10:16.677Z,4.92
2024-01-20T22:12:26.440Z,4.88
2024-01-20T22:14:46.986Z,4.87
2024-01-20T22:16:56.948Z,4.87
2024-01-20T22:19:06.990Z,4.85
2024-01-20T22:21:16.477Z,4.87
2024-01-20T22:23:37.269Z,4.90
2024-01-20T22:25:56.892Z,4.96
2024-01-20T22:28:06.586Z,4.97
2024-01-20T22:30:20.268Z,5.00
2024-01-20T22:32:31.294Z,5.06
2024-01-20T22:35:01.108Z,5.15
2024-01-20T22:37:21.390Z,5.22
2024-01-20T22:39:34.166Z,5.26
2024-01-20T22:41:53.785Z,5.28
2024-01-20T22:44:08.285Z,5.28
2024-01-20T22:46:30.590Z,5.31
2024-01-20T22:49:00.427Z,5.25
2024-01-20T22:51:26.885Z,5.17
2024-01-20T22:53:47.530Z,5.05
2024-01-20T22:55:57.163Z,4.95
2024-01-20T22:58:06.798Z,4.87
2024-01-20T23:00:28.467Z,4.80
2024-01-20T23:02:38.393Z,4.76
2024-01-20T23:04:49.598Z,4.73
2024-01-20T23:07:11.086Z,4.69
2024-01-20T23:09:30.856Z,4.67
2024-01-20T23:11:40.349Z,4.66
2024-01-20T23:14:09.845Z,4.70
2024-01-20T23:16:25.234Z,4.70
2024-01-20T23:18:46.341Z,4.65
2024-01-20T23:20:56.186Z,4.59
2024-01-20T23:23:05.986Z,4.54
2024-01-20T23:25:35.446Z,4.46
2024-01-20T23:27:48.727Z,4.40
2024-01-20T23:29:58.882Z,4.33
2024-01-20T23:32:28.536Z,4.28
2024-01-20T23:34:58.254Z,4.22
2024-01-20T23:37:27.910Z,4.15
2024-01-20T23:39:40.270Z,4.08
2024-01-20T23:41:54.150Z,4.03
2024-01-20T23:44:23.790Z,3.99
2024-01-20T23:46:55.925Z,3.95
2024-01-20T23:49:08.656Z,3.95
2024-01-20T23:51:37.625Z,3.94
2024-01-20T23:54:08.047Z,3.97
2024-01-20T23:56:37.922Z,4.01
2024-01-20T23:59:08.850Z,4.03
